Time;durP1;ratioP1;P1;durP2;ratioP2;P2;SDS_P1;SDS_P2;PMS_P1;PMS_P2;Temp;Humidity;BMP_temperature;BMP_pressure;BME280_temperature;BME280_humidity;BME280_pressure;Samples;Min_cycle;Max_cycle;Signal;HPM_P1;HPM_P2
2021/12/23 00:01:38;;;;;;;24.75;16.48;;;8.30;69.80;;;;;;5048496;28;20028;-72
2021/12/23 00:04:04;;;;;;;23.27;16.77;;;8.30;69.90;;;;;;5048121;28;20033;-72
2021/12/23 00:06:30;;;;;;;24.02;18.23;;;8.30;69.90;;;;;;5048841;28;20037;-71
2021/12/23 00:08:59;;;;;;;20.23;16.67;;;8.30;69.90;;;;;;5049096;28;20037;-71
2021/12/23 00:11:29;;;;;;;23.42;17.50;;;8.30;69.90;;;;;;5030857;28;20120;-71
2021/12/23 00:14:07;;;;;;;22.63;17.85;;;8.20;69.70;;;;;;5051757;28;20341;-72
2021/12/23 00:19:19;;;;;;;26.23;17.88;;;8.30;70.00;;;;;;5058998;28;20284;-71
2021/12/23 00:24:30;;;;;;;21.90;17.13;;;8.30;70.00;;;;;;5047671;28;20069;-72
2021/12/23 00:26:56;;;;;;;25.58;18.65;;;8.20;69.70;;;;;;5048083;28;20104;-71
2021/12/23 00:29:22;;;;;;;22.13;17.08;;;8.30;70.00;;;;;;5046854;28;20028;-71
2021/12/23 00:31:48;;;;;;;20.92;16.95;;;8.30;70.00;;;;;;5048828;28;20385;-71
2021/12/23 00:34:14;;;;;;;23.33;17.60;;;8.30;70.00;;;;;;5067244;28;20416;-71
2021/12/23 00:36:43;;;;;;;22.45;17.20;;;8.30;69.90;;;;;;5067970;28;20021;-72
2021/12/23 00:39:10;;;;;;;21.73;18.40;;;8.40;70.10;;;;;;5068680;28;20036;-71
2021/12/23 00:41:37;;;;;;;23.25;18.58;;;8.30;69.90;;;;;;5068802;28;20028;-71
2021/12/23 00:44:03;;;;;;;22.58;17.33;;;8.30;69.90;;;;;;5063919;28;20511;-71
2021/12/23 00:46:29;;;;;;;22.55;17.60;;;8.30;69.90;;;;;;5048574;28;20045;-70
2021/12/23 00:48:55;;;;;;;24.10;18.52;;;8.30;69.90;;;;;;5056152;28;20037;-71
2021/12/23 00:51:21;;;;;;;24.95;18.50;;;8.30;69.90;;;;;;5067868;28;20422;-71
2021/12/23 00:53:50;;;;;;;23.05;17.67;;;8.40;70.10;;;;;;5067692;28;20032;-71
2021/12/23 00:56:16;;;;;;;23.23;18.08;;;8.40;70.00;;;;;;5067752;28;20028;-71
2021/12/23 00:58:42;;;;;;;24.77;19.05;;;8.30;69.90;;;;;;5067809;28;20032;-71
2021/12/23 01:01:08;;;;;;;24.52;17.15;;;8.40;70.10;;;;;;5067026;28;20031;-71
2021/12/23 01:03:35;;;;;;;22.83;17.30;;;8.40;70.10;;;;;;5066320;28;20044;-71
2021/12/23 01:06:01;;;;;;;26.30;18.23;;;8.40;70.10;;;;;;5067971;28;20466;-70
2021/12/23 01:08:27;;;;;;;24.80;19.25;;;8.30;69.90;;;;;;5067892;28;20032;-71
2021/12/23 01:10:56;;;;;;;25.08;18.45;;;8.40;70.10;;;;;;5067190;28;20430;-70
2021/12/23 01:13:27;;;;;;;25.45;18.90;;;8.40;70.10;;;;;;5067472;28;20486;-71
2021/12/23 01:16:05;;;;;;;23.98;18.45;;;8.40;70.10;;;;;;5066752;28;20025;-71
2021/12/23 01:18:43;;;;;;;28.30;21.17;;;8.40;70.10;;;;;;5067234;28;20056;-70
2021/12/23 01:21:16;;;;;;;22.08;17.27;;;8.40;70.10;;;;;;5067404;28;20120;-70
2021/12/23 01:23:47;;;;;;;;;;;8.40;70.10;;;;;;5067203;28;20036;-71
2021/12/23 01:26:18;;;;;;;24.00;19.08;;;8.40;70.10;;;;;;5067096;28;19943;-71
2021/12/23 01:28:46;;;;;;;26.33;19.00;;;8.40;70.00;;;;;;5066912;28;20033;-71
2021/12/23 01:31:12;;;;;;;23.95;19.02;;;8.40;70.00;;;;;;5066662;28;20024;-71
2021/12/23 01:33:38;;;;;;;25.40;20.00;;;8.50;70.20;;;;;;5066976;28;20446;-71
2021/12/23 01:36:05;;;;;;;26.33;19.52;;;8.50;70.20;;;;;;5066766;28;20227;-71
2021/12/23 01:38:31;;;;;;;24.35;18.77;;;8.50;70.20;;;;;;5066790;28;20119;-70
2021/12/23 01:40:57;;;;;;;25.52;19.98;;;8.50;70.20;;;;;;5066597;28;20540;-70
2021/12/23 01:43:23;;;;;;;26.17;19.77;;;8.50;70.20;;;;;;5066536;28;20033;-70
2021/12/23 01:45:50;;;;;;;23.98;19.40;;;8.50;70.30;;;;;;5047149;28;20036;-70
2021/12/23 01:48:17;;;;;;;27.25;19.95;;;8.50;70.30;;;;;;5046328;28;20032;-70
2021/12/23 01:50:44;;;;;;;29.05;19.58;;;8.50;70.30;;;;;;5046666;28;20400;-70
2021/12/23 01:53:10;;;;;;;24.30;20.20;;;8.50;70.30;;;;;;5046671;28;20512;-70
2021/12/23 01:55:38;;;;;;;25.48;19.77;;;8.50;70.30;;;;;;5046301;28;20040;-70
2021/12/23 01:58:06;;;;;;;25.67;20.30;;;8.50;70.30;;;;;;5046585;28;20032;-70
2021/12/23 02:00:36;;;;;;;27.85;21.23;;;8.50;70.30;;;;;;5046591;28;20071;-70
2021/12/23 02:03:03;;;;;;;26.10;19.38;;;8.50;70.40;;;;;;5046351;28;20119;-70
2021/12/23 02:05:30;;;;;;;27.73;20.10;;;8.50;70.40;;;;;;5061772;28;20063;-70
2021/12/23 02:07:58;;;;;;;27.33;20.50;;;8.50;70.40;;;;;;5065887;28;20077;-70
2021/12/23 02:10:24;;;;;;;27.48;21.50;;;8.50;70.50;;;;;;5044741;28;20127;-70
2021/12/23 02:12:50;;;;;;;26.50;20.50;;;8.50;70.50;;;;;;5046189;28;20024;-70
2021/12/23 02:15:18;;;;;;;31.58;21.30;;;8.50;70.50;;;;;;5046073;28;20144;-70
2021/12/23 02:17:46;;;;;;;28.83;22.25;;;8.50;70.50;;;;;;5045027;28;20481;-70
2021/12/23 02:20:14;;;;;;;27.75;20.65;;;8.50;70.60;;;;;;5046219;28;20392;-70
2021/12/23 02:22:42;;;;;;;27.67;21.05;;;8.60;70.80;;;;;;5028695;28;20040;-70
2021/12/23 02:25:10;;;;;;;29.60;20.35;;;8.60;70.80;;;;;;5046312;28;20434;-71
2021/12/23 02:27:36;;;;;;;25.55;20.17;;;8.60;70.80;;;;;;5045885;28;20956;-70
2021/12/23 02:30:06;;;;;;;27.27;20.40;;;8.60;70.80;;;;;;5045805;28;20056;-70
2021/12/23 02:32:35;;;;;;;29.30;21.80;;;8.60;70.80;;;;;;5029590;28;20112;-70
2021/12/23 02:35:02;;;;;;;26.05;20.00;;;8.60;70.70;;;;;;5046841;28;20079;-70
2021/12/23 02:37:27;;;;;;;32.03;21.50;;;8.60;70.70;;;;;;5048977;28;20029;-71
2021/12/23 02:39:53;;;;;;;30.80;21.20;;;8.60;70.80;;;;;;5047149;28;20491;-71
2021/12/23 02:42:19;;;;;;;29.90;23.42;;;8.60;70.80;;;;;;5048363;28;20033;-71
2021/12/23 02:44:45;;;;;;;28.80;22.30;;;8.60;70.80;;;;;;5047360;28;20043;-71
2021/12/23 02:47:12;;;;;;;32.55;23.65;;;8.60;70.80;;;;;;5066960;28;20049;-70
2021/12/23 02:49:37;;;;;;;31.10;22.25;;;8.70;71.00;;;;;;5070727;28;20487;-71
2021/12/23 02:52:04;;;;;;;32.10;22.20;;;8.70;71.00;;;;;;5070517;28;20032;-71
2021/12/23 02:54:31;;;;;;;32.40;24.67;;;8.70;71.00;;;;;;5070598;28;20392;-71
2021/12/23 02:56:59;;;;;;;31.90;23.13;;;8.70;71.00;;;;;;5071091;28;20039;-71
2021/12/23 02:59:25;;;;;;;32.40;22.75;;;8.70;71.00;;;;;;5070998;28;20123;-71
2021/12/23 03:01:51;;;;;;;31.88;22.70;;;8.70;71.10;;;;;;5073427;28;20243;-71
2021/12/23 03:04:17;;;;;;;29.85;22.60;;;8.70;71.10;;;;;;5074776;28;20064;-71
2021/12/23 03:06:43;;;;;;;32.58;23.13;;;8.70;71.10;;;;;;5074848;28;20043;-71
2021/12/23 03:09:09;;;;;;;28.00;21.60;;;8.70;71.10;;;;;;5074622;28;20483;-71
2021/12/23 03:11:35;;;;;;;28.17;22.80;;;8.70;71.20;;;;;;5075093;28;20056;-71
2021/12/23 03:14:01;;;;;;;33.28;23.13;;;8.70;71.20;;;;;;5074592;28;20037;-71
2021/12/23 03:16:33;;;;;;;28.27;21.77;;;8.70;71.20;;;;;;5074163;28;20535;-71
2021/12/23 03:18:59;;;;;;;29.93;21.60;;;8.70;71.20;;;;;;5074566;28;20491;-71
2021/12/23 03:21:25;;;;;;;32.35;23.98;;;8.80;71.40;;;;;;5074291;28;20268;-71
2021/12/23 03:23:51;;;;;;;28.45;21.73;;;8.70;71.20;;;;;;5074615;28;20395;-71
2021/12/23 03:26:17;;;;;;;30.27;22.08;;;8.80;71.40;;;;;;5074384;28;20028;-71
2021/12/23 03:28:43;;;;;;;31.63;21.90;;;8.70;71.20;;;;;;5074885;28;20025;-71
2021/12/23 03:31:09;;;;;;;31.20;22.65;;;8.80;71.40;;;;;;5074103;28;20570;-71
2021/12/23 03:33:35;;;;;;;30.42;22.10;;;8.80;71.40;;;;;;5074125;28;20127;-71
2021/12/23 03:36:02;;;;;;;32.25;22.02;;;8.80;71.30;;;;;;5073705;28;20033;-71
2021/12/23 03:38:28;;;;;;;29.83;21.95;;;8.80;71.30;;;;;;5056027;28;20078;-71
2021/12/23 03:40:54;;;;;;;31.70;23.00;;;8.80;71.40;;;;;;5073967;28;20552;-71
2021/12/23 03:43:20;;;;;;;32.47;23.15;;;8.80;71.40;;;;;;5074295;28;20056;-71
2021/12/23 03:45:48;;;;;;;29.30;22.77;;;8.80;71.40;;;;;;5073652;28;20021;-71
2021/12/23 03:48:16;;;;;;;33.05;24.05;;;8.80;71.40;;;;;;5073681;28;20047;-71
2021/12/23 03:50:43;;;;;;;30.00;21.95;;;8.80;71.40;;;;;;5073809;28;20043;-71
2021/12/23 03:53:10;;;;;;;29.83;22.75;;;8.90;71.70;;;;;;5073892;28;20460;-71
2021/12/23 03:55:36;;;;;;;30.15;21.95;;;8.80;71.50;;;;;;5073602;28;20479;-71
2021/12/23 03:58:03;;;;;;;31.02;23.02;;;8.80;71.50;;;;;;5073845;28;20433;-71
2021/12/23 04:00:29;;;;;;;34.97;23.88;;;8.90;71.70;;;;;;5073293;28;20032;-71
2021/12/23 04:02:55;;;;;;;32.17;23.13;;;8.90;71.70;;;;;;5073368;28;20028;-71
2021/12/23 04:05:22;;;;;;;32.25;23.75;;;8.90;71.70;;;;;;5073289;28;20429;-71
2021/12/23 04:07:48;;;;;;;33.88;23.63;;;8.90;71.70;;;;;;5055613;28;20040;-71
2021/12/23 04:10:17;;;;;;;32.72;24.10;;;8.90;71.70;;;;;;5073884;28;20146;-71
2021/12/23 04:12:43;;;;;;;38.40;25.08;;;8.90;71.70;;;;;;5055072;28;20387;-71
2021/12/23 04:15:10;;;;;;;31.88;23.38;;;9.00;71.90;;;;;;5073086;28;20115;-71
2021/12/23 04:17:36;;;;;;;35.00;25.20;;;9.00;71.80;;;;;;5073288;28;20174;-71
2021/12/23 04:20:19;;;;;;;33.53;23.80;;;9.00;71.80;;;;;;5073463;28;20032;-71
2021/12/23 04:22:47;;;;;;;;;;;9.00;71.80;;;;;;5073596;28;20029;-71
2021/12/23 04:25:14;;;;;;;32.67;23.50;;;9.10;71.90;;;;;;5073473;28;20321;-71
2021/12/23 04:27:41;;;;;;;34.10;24.02;;;9.10;71.80;;;;;;5073207;28;20427;-71
2021/12/23 04:30:08;;;;;;;34.67;24.65;;;9.10;71.80;;;;;;5073066;28;20028;-71
2021/12/23 04:32:34;;;;;;;32.63;22.67;;;9.10;71.80;;;;;;5073160;28;20033;-71
2021/12/23 04:35:00;;;;;;;34.78;24.90;;;9.10;71.80;;;;;;5072707;28;20040;-71
2021/12/23 04:37:26;;;;;;;30.77;23.10;;;9.10;71.90;;;;;;5073544;28;20423;-71
2021/12/23 04:39:52;;;;;;;33.08;24.02;;;9.20;72.00;;;;;;5072752;28;20045;-71
2021/12/23 04:42:19;;;;;;;31.83;24.10;;;9.20;72.00;;;;;;5073756;28;20033;-71
2021/12/23 04:44:44;;;;;;;32.17;24.92;;;9.20;72.00;;;;;;5073112;28;20028;-71
2021/12/23 04:47:10;;;;;;;35.58;24.75;;;9.20;72.10;;;;;;5072685;28;20492;-71
2021/12/23 04:49:36;;;;;;;32.25;23.27;;;9.20;72.10;;;;;;5073133;28;20033;-71
2021/12/23 04:52:03;;;;;;;33.78;24.25;;;9.20;72.10;;;;;;5054775;28;20546;-71
2021/12/23 04:54:29;;;;;;;30.00;23.30;;;9.30;72.30;;;;;;5072751;28;20506;-71
2021/12/23 04:56:54;;;;;;;33.08;23.60;;;9.30;72.30;;;;;;5072304;28;20033;-71
2021/12/23 04:59:20;;;;;;;36.00;25.20;;;9.30;72.30;;;;;;5071594;28;20107;-71
2021/12/23 05:01:47;;;;;;;35.45;23.90;;;9.30;72.30;;;;;;5072672;28;20035;-71
2021/12/23 05:04:13;;;;;;;37.60;25.95;;;9.30;72.30;;;;;;5072040;28;20130;-71
2021/12/23 05:06:40;;;;;;;34.67;25.50;;;9.40;72.50;;;;;;5072343;28;20040;-71
2021/12/23 05:09:06;;;;;;;34.25;24.63;;;9.40;72.50;;;;;;5071966;28;20033;-71
2021/12/23 05:11:32;;;;;;;36.38;25.33;;;9.40;72.50;;;;;;5071189;28;20031;-70
2021/12/23 05:13:58;;;;;;;34.38;25.50;;;9.40;72.50;;;;;;5071941;28;20119;-70
2021/12/23 05:16:24;;;;;;;31.85;23.17;;;9.40;72.50;;;;;;5072246;28;20058;-71
2021/12/23 05:18:50;;;;;;;30.35;23.08;;;9.40;72.50;;;;;;5072374;28;20291;-71
2021/12/23 05:21:16;;;;;;;34.15;24.95;;;9.40;72.50;;;;;;5054423;28;20130;-71
2021/12/23 05:23:42;;;;;;;33.95;24.90;;;9.50;72.70;;;;;;5053059;28;20032;-71
2021/12/23 05:26:08;;;;;;;35.05;25.05;;;9.40;72.50;;;;;;5071879;28;20024;-70
2021/12/23 05:28:35;;;;;;;34.47;24.83;;;9.50;72.60;;;;;;5071892;28;20036;-71
2021/12/23 05:31:03;;;;;;;35.42;24.33;;;9.50;72.70;;;;;;5072087;28;20082;-70
2021/12/23 05:33:28;;;;;;;36.67;25.13;;;9.50;72.70;;;;;;5071835;28;20039;-71
2021/12/23 05:35:55;;;;;;;36.25;26.23;;;9.50;72.70;;;;;;5072689;28;20387;-70
2021/12/23 05:38:22;;;;;;;36.40;25.95;;;9.60;72.80;;;;;;5071433;28;20028;-71
2021/12/23 05:40:48;;;;;;;34.95;25.65;;;9.50;72.70;;;;;;5070519;28;20124;-71
2021/12/23 05:43:14;;;;;;;36.47;26.40;;;9.50;72.70;;;;;;5071880;28;20033;-71
2021/12/23 05:45:40;;;;;;;35.03;25.00;;;9.60;72.90;;;;;;5071557;28;20083;-71
2021/12/23 05:48:06;;;;;;;36.90;25.77;;;9.60;72.90;;;;;;5068994;28;20060;-71
2021/12/23 05:50:32;;;;;;;33.95;23.52;;;9.60;72.90;;;;;;5068632;28;20492;-71
2021/12/23 05:52:58;;;;;;;35.63;25.00;;;9.60;72.90;;;;;;5067918;28;20661;-71
2021/12/23 05:55:24;;;;;;;36.75;26.17;;;9.60;73.00;;;;;;5068444;28;20280;-71
2021/12/23 05:57:50;;;;;;;35.08;24.20;;;9.60;73.00;;;;;;5066566;28;20108;-71
2021/12/23 06:00:23;;;;;;;34.90;25.35;;;9.60;73.00;;;;;;5068509;28;20033;-71
2021/12/23 06:02:50;;;;;;;34.05;24.05;;;9.50;72.90;;;;;;5065743;28;20024;-71
2021/12/23 06:05:16;;;;;;;36.85;24.98;;;9.50;73.00;;;;;;5066408;28;20028;-71
2021/12/23 06:07:43;;;;;;;30.98;23.55;;;9.50;73.00;;;;;;5065732;28;20522;-71
2021/12/23 06:10:10;;;;;;;34.42;23.58;;;9.50;73.10;;;;;;5066154;28;20032;-71
2021/12/23 06:12:36;;;;;;;36.90;25.58;;;9.50;73.10;;;;;;5066748;28;20032;-71
2021/12/23 06:15:03;;;;;;;37.40;24.92;;;9.50;73.10;;;;;;5066222;28;20473;-71
2021/12/23 06:17:29;;;;;;;33.92;23.73;;;9.50;73.20;;;;;;5065541;28;20024;-72
2021/12/23 06:19:55;;;;;;;33.25;24.83;;;9.50;73.20;;;;;;5064280;28;20457;-71
2021/12/23 06:22:21;;;;;;;40.30;25.67;;;9.50;73.20;;;;;;5066553;28;20523;-71
2021/12/23 06:24:48;;;;;;;29.55;22.40;;;9.50;73.10;;;;;;5064345;28;20060;-72
2021/12/23 06:27:15;;;;;;;31.75;23.35;;;9.50;73.20;;;;;;5066301;28;20086;-71
2021/12/23 06:29:41;;;;;;;30.60;23.30;;;9.50;73.10;;;;;;5066813;28;20142;-71
2021/12/23 06:32:08;;;;;;;34.03;24.42;;;9.60;73.30;;;;;;5064927;28;20051;-71
2021/12/23 06:34:34;;;;;;;35.25;24.10;;;9.50;73.10;;;;;;5065533;28;20076;-71
2021/12/23 06:37:00;;;;;;;34.33;25.15;;;9.60;73.30;;;;;;5065970;28;20409;-71
2021/12/23 06:39:26;;;;;;;31.33;22.73;;;9.60;73.30;;;;;;5066396;28;20123;-71
2021/12/23 06:41:52;;;;;;;34.38;24.23;;;9.50;73.10;;;;;;5066407;28;20078;-71
2021/12/23 06:44:20;;;;;;;33.20;24.05;;;9.50;73.20;;;;;;5066147;28;20032;-71
2021/12/23 06:46:46;;;;;;;30.30;23.02;;;9.60;73.40;;;;;;5065674;28;20619;-70
2021/12/23 06:49:16;;;;;;;28.90;22.60;;;9.50;73.20;;;;;;5047438;28;20548;-70
2021/12/23 06:51:42;;;;;;;34.03;24.38;;;9.60;73.40;;;;;;5066472;28;20666;-70
2021/12/23 06:54:09;;;;;;;31.67;22.27;;;9.60;74.00;;;;;;5064067;28;20519;-71
2021/12/23 06:56:35;;;;;;;29.83;23.52;;;9.60;73.40;;;;;;5065813;28;20040;-70
2021/12/23 06:59:01;;;;;;;33.03;23.83;;;9.60;73.40;;;;;;5065719;28;20020;-70
2021/12/23 07:01:27;;;;;;;30.90;23.13;;;9.60;73.40;;;;;;5065381;28;20067;-71
2021/12/23 07:06:30;;;;;;;32.28;22.75;;;9.70;73.50;;;;;;5065873;28;20033;-71
2021/12/23 07:08:57;;;;;;;28.83;23.20;;;9.70;73.50;;;;;;5047041;28;20044;-71
2021/12/23 07:11:23;;;;;;;29.50;23.52;;;9.70;73.50;;;;;;5065599;28;20084;-70
2021/12/23 07:13:49;;;;;;;29.10;21.02;;;9.70;73.40;;;;;;5065814;28;20127;-70
2021/12/23 07:16:15;;;;;;;32.25;23.27;;;9.80;73.60;;;;;;5065043;28;20391;-71
2021/12/23 07:18:41;;;;;;;30.02;21.90;;;9.80;73.60;;;;;;5054951;28;20025;-71
2021/12/23 07:21:07;;;;;;;29.45;22.30;;;9.80;73.50;;;;;;5027627;28;20448;-71
2021/12/23 07:23:33;;;;;;;30.88;22.13;;;9.80;73.50;;;;;;5045421;28;20037;-71
2021/12/23 07:25:59;;;;;;;32.00;22.02;;;9.90;73.60;;;;;;5045675;28;20033;-72
2021/12/23 07:28:25;;;;;;;26.23;20.40;;;9.90;73.60;;;;;;5046285;28;20071;-72
2021/12/23 07:30:51;;;;;;;26.30;20.08;;;9.90;73.50;;;;;;5044699;28;20057;-71
2021/12/23 07:33:17;;;;;;;31.38;23.10;;;9.90;73.60;;;;;;5045549;28;20029;-71
2021/12/23 07:35:43;;;;;;;27.13;20.33;;;9.90;73.50;;;;;;5046541;28;20441;-71
2021/12/23 07:38:09;;;;;;;25.48;19.85;;;10.00;73.70;;;;;;5064626;28;20094;-72
2021/12/23 07:40:35;;;;;;;28.30;19.40;;;10.00;73.80;;;;;;5065708;28;20037;-71
2021/12/23 07:43:09;;;;;;;25.33;18.60;;;10.10;74.10;;;;;;5065550;28;20037;-71
2021/12/23 07:45:38;;;;;;;25.35;19.13;;;10.10;74.20;;;;;;5048579;28;20119;-71
2021/12/23 07:48:04;;;;;;;26.92;18.25;;;10.10;74.20;;;;;;5067897;28;20076;-71
2021/12/23 07:50:30;;;;;;;24.63;18.52;;;10.10;74.30;;;;;;5069095;28;20047;-69
2021/12/23 07:52:56;;;;;;;28.38;17.67;;;10.20;74.80;;;;;;5065577;28;20454;-72
2021/12/23 07:55:22;;;;;;;24.58;18.48;;;10.20;75.10;;;;;;5049049;28;20041;-72
2021/12/23 07:57:49;;;;;;;25.95;19.20;;;10.30;75.30;;;;;;5051895;28;20032;-72
2021/12/23 08:00:16;;;;;;;31.35;19.92;;;10.30;75.50;;;;;;5057180;28;20028;-71
2021/12/23 08:02:43;;;;;;;24.20;18.10;;;10.40;75.70;;;;;;5068446;28;20472;-72
2021/12/23 08:05:09;;;;;;;26.48;19.13;;;10.40;75.80;;;;;;5068850;28;20032;-69
2021/12/23 08:07:35;;;;;;;29.00;18.83;;;10.40;75.80;;;;;;5069289;28;20036;-72
2021/12/23 08:10:02;;;;;;;24.50;17.98;;;10.40;75.90;;;;;;5068658;28;20020;-72
2021/12/23 08:12:28;;;;;;;23.48;17.60;;;10.50;76.20;;;;;;5068946;28;20384;-73
2021/12/23 08:14:54;;;;;;;22.55;17.80;;;10.50;76.20;;;;;;5069379;28;20047;-72
2021/12/23 08:17:20;;;;;;;26.23;19.00;;;10.50;76.20;;;;;;5076101;28;20070;-72
2021/12/23 08:19:46;;;;;;;25.02;17.75;;;10.50;76.30;;;;;;5068109;28;20029;-72
2021/12/23 08:22:12;;;;;;;23.90;17.65;;;10.60;76.60;;;;;;5050102;28;20093;-72
2021/12/23 08:24:38;;;;;;;24.52;18.65;;;10.60;76.80;;;;;;5068300;28;20048;-72
2021/12/23 08:27:06;;;;;;;23.92;18.20;;;10.70;77.10;;;;;;5067837;28;20028;-72
2021/12/23 08:29:31;;;;;;;22.65;16.50;;;10.70;77.20;;;;;;5062919;28;20457;-73
2021/12/23 08:31:57;;;;;;;22.17;17.38;;;10.70;77.20;;;;;;5049714;28;20039;-72
2021/12/23 08:34:24;;;;;;;23.92;18.40;;;10.80;77.40;;;;;;5067878;28;20044;-72
2021/12/23 08:36:52;;;;;;;23.45;18.77;;;10.80;77.40;;;;;;5051671;28;20033;-72
2021/12/23 08:39:19;;;;;;;23.45;17.27;;;10.80;77.40;;;;;;5068931;28;20039;-71
2021/12/23 08:41:47;;;;;;;22.70;17.60;;;10.80;77.40;;;;;;5067657;28;20387;-71
2021/12/23 08:44:14;;;;;;;32.80;18.02;;;10.90;77.60;;;;;;5067817;28;20051;-71
2021/12/23 08:46:40;;;;;;;21.20;16.55;;;10.80;77.50;;;;;;5067211;28;20296;-72
2021/12/23 08:49:06;;;;;;;24.05;17.38;;;10.80;77.50;;;;;;5067011;28;20499;-72
2021/12/23 08:51:35;;;;;;;22.60;17.48;;;10.80;77.50;;;;;;5068066;28;20332;-72
2021/12/23 08:54:01;;;;;;;23.02;17.95;;;10.80;77.50;;;;;;5067604;28;20032;-72
2021/12/23 08:56:27;;;;;;;22.55;18.05;;;10.80;77.50;;;;;;5067198;28;20035;-73
2021/12/23 08:58:53;;;;;;;21.55;15.35;;;10.90;77.60;;;;;;5067531;28;20373;-72
2021/12/23 09:01:19;;;;;;;22.48;17.85;;;10.80;77.40;;;;;;5067342;28;20241;-71
2021/12/23 09:03:45;;;;;;;22.80;17.20;;;10.90;77.60;;;;;;5058126;28;20124;-71
2021/12/23 09:06:11;;;;;;;22.05;17.67;;;10.80;77.40;;;;;;5047678;28;20032;-72
2021/12/23 09:08:37;;;;;;;21.77;17.30;;;10.90;77.50;;;;;;5046412;28;20389;-71
2021/12/23 09:11:03;;;;;;;19.67;15.45;;;10.90;77.40;;;;;;5048116;28;20055;-71
2021/12/23 09:13:30;;;;;;;23.38;17.50;;;10.90;77.40;;;;;;5046214;28;20063;-72
2021/12/23 09:15:57;;;;;;;24.20;17.05;;;10.90;77.30;;;;;;5048049;28;20041;-72
2021/12/23 09:18:24;;;;;;;22.27;16.38;;;11.00;77.40;;;;;;5046498;28;20025;-72
2021/12/23 09:20:51;;;;;;;19.67;16.08;;;11.00;77.40;;;;;;5047229;28;20496;-72
2021/12/23 09:23:17;;;;;;;21.40;15.60;;;11.00;77.30;;;;;;5046777;28;20032;-71
2021/12/23 09:25:45;;;;;;;20.88;15.75;;;11.00;77.20;;;;;;5046533;28;20445;-71
2021/12/23 09:33:41;;;;;;;18.35;15.27;;;11.10;77.10;;;;;;5046945;28;19913;-72
2021/12/23 09:36:07;;;;;;;16.90;14.52;;;11.10;76.90;;;;;;5046451;28;20131;-71
2021/12/23 09:38:35;;;;;;;21.13;14.60;;;11.10;76.80;;;;;;5046328;28;20025;-72
2021/12/23 09:41:06;;;;;;;17.73;13.50;;;11.20;77.00;;;;;;5028498;28;20029;-71
2021/12/23 09:43:34;;;;;;;17.58;13.68;;;11.20;76.90;;;;;;5047193;28;20322;-72
2021/12/23 09:46:00;;;;;;;14.82;13.23;;;11.20;76.90;;;;;;5046230;28;20487;-71
2021/12/23 09:48:28;;;;;;;16.63;13.73;;;11.20;76.90;;;;;;5046603;28;20037;-72
2021/12/23 09:50:59;;;;;;;15.40;12.80;;;11.20;76.80;;;;;;5046463;28;20470;-73
2021/12/23 09:53:26;;;;;;;16.90;13.02;;;11.30;77.00;;;;;;5046750;28;20025;-72
2021/12/23 09:55:57;;;;;;;17.13;13.15;;;11.20;76.80;;;;;;5046457;28;20061;-72
2021/12/23 09:58:23;;;;;;;15.32;11.85;;;11.30;76.90;;;;;;5049669;28;20036;-72
2021/12/23 10:00:50;;;;;;;14.65;12.13;;;11.20;76.70;;;;;;5050267;28;20035;-72
2021/12/23 10:03:18;;;;;;;16.45;12.85;;;11.30;76.90;;;;;;5046083;28;20029;-72
2021/12/23 10:05:45;;;;;;;16.20;12.38;;;11.30;76.90;;;;;;5046224;28;20029;-72
2021/12/23 10:08:13;;;;;;;16.38;12.35;;;11.30;76.90;;;;;;5045198;28;20064;-72
2021/12/23 10:38:14;;;;;;;13.73;10.88;;;11.40;76.70;;;;;;5044628;28;20120;-71
2021/12/23 10:40:44;;;;;;;11.57;9.90;;;11.40;76.70;;;;;;5045490;28;20082;-71
2021/12/23 10:43:29;;;;;;;11.68;9.85;;;11.50;76.80;;;;;;5027613;28;20037;-71
2021/12/23 10:46:14;;;;;;;10.68;9.32;;;11.50;76.80;;;;;;5045777;28;20437;-72
2021/12/23 10:48:58;;;;;;;11.85;9.38;;;11.50;76.80;;;;;;5045018;28;20072;-71
2021/12/23 10:51:24;;;;;;;10.65;9.23;;;11.50;76.80;;;;;;5045385;28;20040;-72
2021/12/23 10:54:14;;;;;;;11.48;9.40;;;11.50;76.70;;;;;;5045554;28;20455;-71
2021/12/23 10:59:27;;;;;;;12.05;9.30;;;11.50;76.70;;;;;;5044896;28;20295;-71
2021/12/23 11:02:28;;;;;;;11.35;8.93;;;11.60;76.80;;;;;;5045714;28;20032;-71
2021/12/23 11:05:25;;;;;;;8.65;7.80;;;11.60;76.80;;;;;;5060494;28;20071;-71
2021/12/23 11:41:02;;;;;;;9.63;6.78;;;12.00;76.90;;;;;;5050807;28;20037;-72
2021/12/23 11:43:48;;;;;;;7.82;6.80;;;12.00;76.90;;;;;;5068690;28;20025;-72
2021/12/23 11:46:17;;;;;;;7.28;6.55;;;12.00;76.90;;;;;;5068700;28;20082;-72
2021/12/23 11:48:46;;;;;;;5.85;4.85;;;12.10;77.00;;;;;;5067930;28;20032;-72
2021/12/23 11:51:20;;;;;;;5.65;4.40;;;12.10;77.10;;;;;;5068881;28;20661;-70
2021/12/23 11:53:49;;;;;;;5.55;4.50;;;12.10;77.30;;;;;;5067627;28;20400;-73
2021/12/23 11:56:20;;;;;;;5.85;4.30;;;12.20;77.50;;;;;;5068473;28;20123;-72
2021/12/23 11:58:48;;;;;;;6.25;4.35;;;12.30;77.70;;;;;;5068097;28;20033;-73
2021/12/23 12:01:20;;;;;;;5.82;4.90;;;12.30;77.70;;;;;;5068737;28;20090;-72
2021/12/23 12:03:57;;;;;;;5.03;4.53;;;12.40;78.00;;;;;;5068107;28;20037;-72
2021/12/23 12:06:33;;;;;;;6.20;4.43;;;12.50;78.30;;;;;;5068533;28;20369;-72
2021/12/23 12:09:22;;;;;;;5.72;4.60;;;12.60;78.50;;;;;;5067908;28;20033;-72
2021/12/23 12:12:12;;;;;;;8.82;4.75;;;12.70;79.10;;;;;;5060812;28;20033;-71
2021/12/23 12:14:41;;;;;;;15.90;7.50;;;12.90;79.90;;;;;;5067765;28;20046;-71
2021/12/23 12:17:35;;;;;;;7.88;5.45;;;13.20;80.30;;;;;;5067272;28;20036;-71
2021/12/23 12:20:33;;;;;;;6.38;4.15;;;13.60;81.40;;;;;;5066252;28;20040;-71
2021/12/23 12:23:19;;;;;;;10.00;4.78;;;13.90;81.30;;;;;;5068543;28;20029;-70
2021/12/23 12:25:48;;;;;;;10.68;5.38;;;14.20;81.20;;;;;;5068347;28;20530;-70
2021/12/23 12:28:25;;;;;;;8.38;4.25;;;14.60;81.50;;;;;;5068205;28;20592;-71
2021/12/23 12:30:53;;;;;;;4.80;3.47;;;14.80;81.70;;;;;;5049647;28;20070;-71
2021/12/23 12:33:25;;;;;;;5.30;3.90;;;15.00;81.60;;;;;;5067724;28;20037;-71
2021/12/23 12:36:11;;;;;;;6.38;4.35;;;15.20;81.60;;;;;;5050538;28;20037;-71
2021/12/23 12:38:40;;;;;;;6.47;4.18;;;15.20;81.40;;;;;;5067579;28;20082;-71
2021/12/23 12:41:17;;;;;;;4.85;3.15;;;15.20;81.30;;;;;;5068074;28;20276;-72
2021/12/23 12:46:11;;;;;;;5.80;3.92;;;15.00;81.30;;;;;;5068004;28;20056;-72
2021/12/23 12:48:55;;;;;;;3.90;3.10;;;15.00;81.50;;;;;;5067780;28;20035;-74
2021/12/23 12:51:27;;;;;;;4.68;2.90;;;14.90;81.60;;;;;;5049967;28;20028;-72
2021/12/23 12:54:02;;;;;;;4.93;3.15;;;14.80;81.70;;;;;;5067378;28;20036;-71
2021/12/23 12:56:29;;;;;;;6.95;3.03;;;14.90;82.40;;;;;;5068223;28;20533;-73
2021/12/23 12:58:56;;;;;;;5.18;2.90;;;14.90;81.70;;;;;;5067336;28;20023;-73
2021/12/23 13:01:34;;;;;;;3.55;2.95;;;14.90;81.60;;;;;;5067466;28;20036;-72
2021/12/23 13:04:01;;;;;;;3.15;2.70;;;15.00;81.60;;;;;;5067499;28;20043;-72
2021/12/23 13:06:36;;;;;;;4.30;2.70;;;15.00;81.40;;;;;;5067254;28;20024;-72
2021/12/23 13:09:27;;;;;;;4.70;2.95;;;15.10;81.20;;;;;;5067258;28;20036;-71
2021/12/23 13:12:48;;;;;;;5.20;2.67;;;15.10;81.00;;;;;;5036056;28;20045;-72
2021/12/23 13:15:39;;;;;;;4.07;2.67;;;15.10;80.70;;;;;;5035929;28;20044;-72
2021/12/23 13:18:18;;;;;;;5.60;2.97;;;15.00;80.50;;;;;;5049118;28;20036;-72
2021/12/23 13:20:56;;;;;;;4.85;2.95;;;15.00;80.50;;;;;;5033509;28;20087;-72
2021/12/23 13:23:40;;;;;;;7.20;2.65;;;14.90;80.40;;;;;;5066769;28;20043;-72
2021/12/23 13:26:08;;;;;;;4.25;2.60;;;14.90;80.40;;;;;;5067619;28;20103;-72
2021/12/23 13:28:42;;;;;;;2.85;2.45;;;14.90;80.50;;;;;;5041251;28;20035;-71
2021/12/23 13:31:14;;;;;;;3.33;2.85;;;14.90;80.50;;;;;;5046913;28;20033;-72
2021/12/23 13:33:42;;;;;;;5.72;3.60;;;14.90;81.00;;;;;;5029251;28;20033;-72
2021/12/23 13:36:22;;;;;;;3.75;2.95;;;14.90;80.30;;;;;;5047303;28;20051;-72
2021/12/23 13:39:03;;;;;;;3.25;2.33;;;14.90;80.20;;;;;;5035523;28;20045;-73
2021/12/23 13:41:36;;;;;;;4.97;3.28;;;15.00;80.20;;;;;;5046569;28;20036;-72
2021/12/23 13:44:15;;;;;;;5.25;3.15;;;15.00;80.10;;;;;;5046432;28;20044;-74
2021/12/23 13:46:43;;;;;;;4.32;2.85;;;15.10;80.10;;;;;;5045524;28;20123;-74
2021/12/23 13:49:10;;;;;;;5.68;2.78;;;15.10;79.90;;;;;;5045891;28;20095;-74
2021/12/23 13:51:39;;;;;;;5.65;3.20;;;15.10;79.80;;;;;;5047030;28;20487;-73
2021/12/23 13:54:17;;;;;;;4.85;2.97;;;15.10;79.70;;;;;;5045823;28;20073;-72
2021/12/23 13:56:51;;;;;;;6.90;3.17;;;15.10;79.60;;;;;;5046910;28;20036;-74
2021/12/23 13:59:28;;;;;;;4.47;2.65;;;15.10;79.60;;;;;;5028869;28;20033;-73
2021/12/23 14:02:09;;;;;;;4.78;2.78;;;15.10;79.60;;;;;;5046423;28;20192;-73
2021/12/23 14:04:48;;;;;;;4.90;3.33;;;15.00;79.40;;;;;;5028259;28;20112;-73
2021/12/23 14:07:23;;;;;;;5.13;2.90;;;15.00;79.50;;;;;;5046123;28;20389;-72